Time;durP1;ratioP1;P1;durP2;ratioP2;P2;SDS_P1;SDS_P2;PMS_P1;PMS_P2;Temp;Humidity;BMP_temperature;BMP_pressure;BME280_temperature;BME280_humidity;BME280_pressure;Samples;Min_cycle;Max_cycle;Signal;HPM_P1;HPM_P2
2022/04/29 00:01:12;;;;;;;14.30;10.13;;;9.60;99.90;;;-141.84;69.53;17408.28;5031219;28;20232;-55
2022/04/29 00:03:40;;;;;;;12.67;9.63;;;9.60;99.90;;;-141.84;70.57;17410.31;5030986;28;20213;-53
2022/04/29 00:06:08;;;;;;;12.63;9.07;;;9.50;99.90;;;-141.84;71.99;17426.56;5030901;28;20226;-54
2022/04/29 00:08:37;;;;;;;11.47;9.50;;;9.50;99.90;;;-141.84;73.12;17357.50;5030743;28;20664;-58
2022/04/29 00:11:06;;;;;;;9.90;8.90;;;9.40;99.90;;;-141.84;73.50;17353.44;5030721;28;20679;-58
2022/04/29 00:13:36;;;;;;;11.53;9.20;;;9.30;99.90;;;-141.84;72.88;17345.31;5030481;28;20665;-56
2022/04/29 00:16:05;;;;;;;11.67;9.17;;;9.20;99.90;;;-141.84;72.84;17339.22;5030711;28;20212;-58
2022/04/29 00:18:33;;;;;;;11.43;9.10;;;9.20;99.90;;;-141.84;72.36;17375.78;5031571;28;20194;-56
2022/04/29 00:21:01;;;;;;;12.73;9.90;;;9.20;99.90;;;-141.84;72.44;17365.63;5030412;28;20620;-55
2022/04/29 00:23:32;;;;;;;12.50;9.27;;;9.10;99.90;;;-141.84;73.09;17369.69;5030501;28;20660;-56
2022/04/29 00:26:00;;;;;;;12.70;9.70;;;9.10;99.90;;;-141.84;73.83;17353.44;5030595;28;20246;-56
2022/04/29 00:28:28;;;;;;;11.77;9.03;;;9.10;99.90;;;-141.84;74.56;17290.47;5030269;28;20600;-55
2022/04/29 00:30:57;;;;;;;13.40;9.50;;;9.00;99.90;;;-141.84;75.17;17327.03;5030913;28;20293;-56
2022/04/29 00:33:27;;;;;;;11.67;9.53;;;8.90;99.90;;;-141.84;75.34;17318.91;5030650;28;20238;-56
2022/04/29 00:35:55;;;;;;;12.40;10.03;;;8.90;99.90;;;-141.84;74.94;17296.56;5030206;28;20248;-56
2022/04/29 00:38:23;;;;;;;13.03;10.43;;;8.90;99.90;;;-141.84;75.21;17333.13;5030558;28;20664;-59
2022/04/29 00:40:51;;;;;;;15.17;10.50;;;8.90;99.90;;;-141.84;75.44;17304.69;5030293;28;20326;-55
2022/04/29 00:43:19;;;;;;;11.57;9.63;;;8.90;99.90;;;-141.84;76.16;17286.41;5021797;28;20201;-56
2022/04/29 00:45:46;;;;;;;13.27;10.63;;;8.80;99.90;;;-141.84;76.42;17270.16;5010958;28;20199;-57
2022/04/29 00:48:16;;;;;;;12.60;10.43;;;8.80;99.90;;;-141.84;77.13;17270.16;5010476;28;20694;-54
2022/04/29 00:50:45;;;;;;;13.40;10.13;;;8.80;99.90;;;-141.84;77.09;17245.78;5019593;28;20792;-54
2022/04/29 00:53:15;;;;;;;14.47;11.60;;;8.80;99.90;;;-141.84;76.78;17270.16;5030241;28;20268;-56
2022/04/29 00:55:45;;;;;;;13.50;10.60;;;8.80;99.90;;;-141.84;77.18;17270.16;5030103;28;20238;-57
2022/04/29 00:58:20;;;;;;;15.30;11.40;;;8.80;99.90;;;-141.84;77.26;17282.34;5030197;28;20305;-57
2022/04/29 01:00:48;;;;;;;12.93;10.97;;;8.80;99.90;;;-141.84;77.59;17270.16;5030466;28;20241;-57
2022/04/29 01:03:20;;;;;;;12.80;10.47;;;8.70;99.90;;;-141.84;77.81;17215.31;5029952;28;20228;-54
2022/04/29 01:05:49;;;;;;;16.97;11.17;;;8.70;99.90;;;-141.84;78.17;17221.41;5029683;28;20598;-55
2022/04/29 01:08:18;;;;;;;14.93;10.77;;;8.70;99.90;;;-141.84;79.12;17225.47;5029738;28;20701;-56
2022/04/29 01:10:47;;;;;;;13.80;11.00;;;8.70;99.90;;;-141.84;80.32;17207.19;5029648;28;20320;-56
2022/04/29 01:13:17;;;;;;;15.60;11.77;;;8.60;99.90;;;-141.84;80.95;17152.34;5029828;28;20206;-56
2022/04/29 01:15:48;;;;;;;12.57;10.80;;;8.60;99.90;;;-141.84;80.77;17184.84;5030310;28;20186;-56
2022/04/29 01:18:20;;;;;;;14.10;11.00;;;8.60;99.90;;;-141.84;80.34;17195.00;5029679;28;20226;-57
2022/04/29 01:21:00;;;;;;;16.90;11.90;;;8.60;99.90;;;-141.84;80.44;17164.53;5021041;28;20229;-57
2022/04/29 01:23:30;;;;;;;15.87;11.43;;;8.60;99.90;;;-141.84;79.93;17203.13;5009876;28;20573;-55
2022/04/29 01:25:58;;;;;;;15.70;11.90;;;8.50;99.90;;;-141.84;79.51;17203.13;5009759;28;20230;-57
2022/04/29 01:28:30;;;;;;;15.93;11.80;;;8.60;99.90;;;-141.84;79.20;17164.53;5010062;28;20249;-56
2022/04/29 01:31:00;;;;;;;13.90;11.27;;;8.60;99.90;;;-141.84;79.05;17223.44;5010321;28;20191;-53
2022/04/29 01:33:29;;;;;;;13.07;11.43;;;8.70;99.90;;;-141.84;80.20;17192.97;5010357;28;20729;-57
2022/04/29 01:35:57;;;;;;;14.50;12.23;;;8.60;99.90;;;-141.84;80.68;17178.75;5009524;28;20316;-55
2022/04/29 01:38:25;;;;;;;17.00;12.80;;;8.60;99.90;;;-141.84;79.70;17190.94;5009566;28;20693;-58
2022/04/29 01:40:54;;;;;;;15.30;12.87;;;8.60;99.90;;;-141.84;80.28;17192.97;5009392;28;20227;-56
2022/04/29 01:43:22;;;;;;;14.57;12.20;;;8.60;99.90;;;-141.84;80.74;17178.75;5009750;28;20234;-56
2022/04/29 01:45:50;;;;;;;14.30;12.47;;;8.50;99.90;;;-141.84;81.14;17184.84;5010056;28;20579;-52
2022/04/29 01:48:18;;;;;;;15.10;13.33;;;8.50;99.90;;;-141.84;81.41;17154.38;5009386;28;20637;-58
2022/04/29 01:50:46;;;;;;;17.27;13.50;;;8.40;99.90;;;-141.84;82.59;17152.34;5018956;28;20232;-55
2022/04/29 01:53:15;;;;;;;14.13;12.47;;;8.40;99.90;;;-141.84;79.64;17188.91;5029157;28;20257;-55
2022/04/29 01:55:43;;;;;;;13.97;11.00;;;8.40;99.90;;;-141.84;77.86;17217.34;5029028;28;20309;-57
2022/04/29 01:58:12;;;;;;;15.87;12.20;;;8.60;99.90;;;-141.84;78.27;17207.19;5029065;28;20650;-55
2022/04/29 02:00:40;;;;;;;13.57;11.30;;;8.60;99.90;;;-141.84;79.12;17213.28;5029589;28;20247;-55
2022/04/29 02:03:09;;;;;;;14.77;11.57;;;8.50;99.90;;;-141.84;79.02;17192.97;5029206;28;20320;-57
2022/04/29 02:05:37;;;;;;;14.33;12.37;;;8.50;99.90;;;-141.84;79.38;17197.03;5029081;28;20280;-55
2022/04/29 02:08:09;;;;;;;16.13;12.10;;;8.50;99.90;;;-141.84;80.28;17166.56;5029118;28;20230;-56
2022/04/29 02:10:37;;;;;;;16.07;12.47;;;8.40;99.90;;;-141.84;79.65;17205.16;5028974;28;20257;-55
2022/04/29 02:13:06;;;;;;;15.83;12.20;;;8.40;99.90;;;-141.84;81.16;17180.78;5028899;28;20706;-56
2022/04/29 02:15:35;;;;;;;14.77;12.57;;;8.30;99.90;;;-141.84;81.88;17158.44;5029265;28;20678;-58
2022/04/29 02:18:03;;;;;;;14.57;12.63;;;8.20;99.90;;;-141.84;81.72;17142.22;5012682;28;20730;-53
2022/04/29 02:20:31;;;;;;;13.30;11.87;;;8.20;99.90;;;-141.84;81.41;17184.84;5016917;28;20320;-58
2022/04/29 02:22:59;;;;;;;14.43;11.40;;;8.20;99.90;;;-141.84;81.40;17142.22;5028980;28;20329;-54
2022/04/29 02:25:28;;;;;;;15.70;12.37;;;8.10;99.90;;;-141.84;82.23;17123.94;5028842;28;20313;-59
2022/04/29 02:27:55;;;;;;;17.60;12.53;;;8.10;99.90;;;-141.84;82.61;17087.38;5032042;28;20570;-51
2022/04/29 02:30:23;;;;;;;14.77;12.37;;;8.10;99.90;;;-141.84;83.72;17101.59;5032527;28;20225;-54
2022/04/29 02:32:53;;;;;;;14.30;12.00;;;8.00;99.90;;;-141.84;84.70;17150.31;5032753;28;20831;-56
2022/04/29 02:35:21;;;;;;;14.13;11.43;;;7.90;99.90;;;-141.84;85.05;17101.59;5032714;28;20268;-56
2022/04/29 02:37:49;;;;;;;13.40;12.07;;;7.90;99.90;;;-141.84;84.25;17123.94;5032447;28;20308;-56
2022/04/29 02:40:17;;;;;;;15.33;12.03;;;7.80;99.90;;;-141.84;83.96;17101.59;5032672;28;20297;-59
2022/04/29 02:42:45;;;;;;;15.30;12.03;;;7.90;99.90;;;-141.84;83.73;17128.00;5028699;28;20242;-53
2022/04/29 02:45:13;;;;;;;16.17;11.73;;;7.80;99.90;;;-141.84;84.27;17113.78;5012616;28;20329;-55
2022/04/29 02:47:41;;;;;;;14.67;11.10;;;7.80;99.90;;;-141.84;84.13;17121.91;5012675;28;20305;-57
2022/04/29 02:50:10;;;;;;;15.30;12.43;;;7.80;99.90;;;-141.84;83.27;17125.97;5017171;28;20763;-57
2022/04/29 02:52:38;;;;;;;13.80;12.27;;;7.80;99.90;;;-141.84;83.34;17140.19;5032278;28;20309;-57
2022/04/29 02:55:08;;;;;;;13.40;11.00;;;7.80;99.90;;;-141.84;84.41;17119.88;5032282;28;20879;-57
2022/04/29 02:57:36;;;;;;;14.57;11.57;;;7.70;99.90;;;-141.84;84.78;17095.50;5032503;28;20302;-58
2022/04/29 03:00:07;;;;;;;18.23;11.60;;;7.70;99.90;;;-141.84;84.31;17087.38;5032169;28;20253;-58
2022/04/29 03:02:35;;;;;;;13.37;11.77;;;7.70;99.90;;;-141.84;84.61;17087.38;5032305;28;20238;-53
2022/04/29 03:05:06;;;;;;;16.33;12.00;;;7.60;99.90;;;-141.84;85.53;17117.84;5032079;28;20304;-55
2022/04/29 03:07:35;;;;;;;14.97;12.10;;;7.60;99.90;;;-141.84;85.40;17105.66;5032135;28;20252;-55
2022/04/29 03:10:04;;;;;;;16.00;12.07;;;7.60;99.90;;;-141.84;85.00;17125.97;5032014;28;20728;-56
2022/04/29 03:12:32;;;;;;;15.33;12.13;;;7.60;99.90;;;-141.84;85.76;17097.53;5030817;28;20205;-56
2022/04/29 03:20:28;;;;;;;16.13;12.40;;;7.60;99.90;;;-141.84;84.37;17107.69;5019495;28;20235;-55
2022/04/29 03:22:57;;;;;;;14.83;12.20;;;7.60;99.90;;;-141.84;83.84;17091.44;5031540;28;20803;-56
2022/04/29 03:25:25;;;;;;;17.53;12.93;;;7.60;99.90;;;-141.84;83.94;17132.06;5031768;28;20248;-58
2022/04/29 03:27:53;;;;;;;14.40;11.80;;;7.60;99.90;;;-141.84;83.35;17128.00;5032753;28;20284;-54
2022/04/29 03:30:21;;;;;;;16.27;12.90;;;7.60;99.90;;;-141.84;82.76;17148.31;5031515;28;20312;-58
2022/04/29 03:32:54;;;;;;;14.30;12.13;;;7.60;99.90;;;-141.84;83.15;17136.13;5031611;28;20218;-56
2022/04/29 03:35:22;;;;;;;20.77;12.73;;;7.60;99.90;;;-141.84;82.16;17154.38;5031939;28;20280;-57
2022/04/29 03:37:52;;;;;;;16.03;11.40;;;7.60;99.90;;;-141.84;82.33;17125.97;5030773;28;20236;-58
2022/04/29 03:40:23;;;;;;;18.23;11.47;;;7.60;99.90;;;-141.84;81.90;17160.47;5031000;28;20202;-57
2022/04/29 03:42:54;;;;;;;17.23;11.90;;;7.60;99.90;;;-141.84;82.37;17125.97;5027222;28;20301;-58
2022/04/29 03:45:26;;;;;;;17.87;12.20;;;7.70;99.90;;;-141.84;82.79;17140.19;5011754;28;20481;-57
2022/04/29 03:47:55;;;;;;;15.83;12.00;;;7.60;99.90;;;-141.84;81.56;17162.50;5011761;28;20305;-58
2022/04/29 03:50:25;;;;;;;15.60;11.40;;;7.60;99.90;;;-141.84;80.82;17128.00;5018318;28;20789;-56
2022/04/29 03:52:55;;;;;;;16.80;11.90;;;7.70;99.90;;;-141.84;79.40;17144.25;5031143;28;20769;-55
2022/04/29 03:55:27;;;;;;;14.60;11.97;;;7.70;99.90;;;-141.84;79.34;17168.59;5031473;28;20229;-56
2022/04/29 03:57:56;;;;;;;18.30;12.43;;;7.80;99.90;;;-141.84;78.25;17156.41;5031690;28;20363;-56
2022/04/29 04:00:29;;;;;;;14.17;11.70;;;7.90;99.90;;;-141.84;77.74;17152.34;5031168;28;20315;-56
2022/04/29 04:02:57;;;;;;;14.57;11.97;;;8.10;99.90;;;-141.84;79.42;17148.31;5031019;28;20237;-57
2022/04/29 04:05:26;;;;;;;16.67;12.67;;;7.90;99.90;;;-141.84;81.08;17144.25;5031149;28;20259;-58
2022/04/29 04:07:54;;;;;;;19.60;12.80;;;7.90;99.90;;;-141.84;81.61;17130.03;5030647;28;20313;-56
2022/04/29 04:10:22;;;;;;;14.30;11.33;;;7.80;99.90;;;-141.84;81.75;17152.34;5030652;28;20229;-56
2022/04/29 04:12:52;;;;;;;16.80;12.50;;;7.70;99.90;;;-141.84;82.88;17109.72;5031115;28;20304;-57
2022/04/29 04:15:23;;;;;;;16.00;11.93;;;7.70;99.90;;;-141.84;83.47;17109.72;5030892;28;20658;-56
2022/04/29 04:17:52;;;;;;;18.80;12.87;;;7.60;99.90;;;-141.84;81.98;17113.78;5030836;28;20225;-56
2022/04/29 04:20:20;;;;;;;14.87;12.20;;;7.80;99.90;;;-141.84;82.11;17105.66;5030788;28;20221;-56
2022/04/29 04:22:48;;;;;;;16.63;12.93;;;7.80;99.90;;;-141.84;82.48;17107.69;5030294;28;20717;-56
2022/04/29 04:25:16;;;;;;;15.83;12.07;;;7.80;99.90;;;-141.84;81.19;17134.09;5030693;28;20224;-55
2022/04/29 04:27:44;;;;;;;15.90;12.73;;;8.00;99.90;;;-141.84;80.44;17128.00;5031105;28;20201;-55
2022/04/29 04:30:14;;;;;;;15.73;11.90;;;8.00;99.90;;;-141.84;80.78;17156.41;5030495;28;20663;-58
2022/04/29 04:32:42;;;;;;;16.80;12.00;;;8.10;99.90;;;-141.84;80.25;17113.78;5030712;28;20233;-56
2022/04/29 04:35:10;;;;;;;16.30;11.83;;;8.20;99.90;;;-141.84;78.76;17184.84;5030530;28;20261;-56
2022/04/29 04:37:38;;;;;;;18.60;12.60;;;8.30;99.90;;;-141.84;77.09;17176.72;5030060;28;20260;-55
2022/04/29 04:40:08;;;;;;;15.00;12.13;;;8.50;99.90;;;-141.84;76.95;17201.09;5030483;28;20198;-57
2022/04/29 04:42:44;;;;;;;17.17;12.27;;;8.60;99.90;;;-141.84;77.62;17142.22;5027925;28;20316;-56
2022/04/29 04:45:14;;;;;;;16.23;12.03;;;8.70;99.90;;;-141.84;75.87;17192.97;5010536;28;20313;-56
2022/04/29 04:47:42;;;;;;;14.60;12.03;;;8.90;99.90;;;-141.84;74.83;17213.28;5010543;28;20233;-58
2022/04/29 04:50:11;;;;;;;14.90;11.83;;;9.10;99.90;;;-141.84;74.17;17213.28;5014945;28;20705;-56
2022/04/29 04:52:44;;;;;;;16.23;11.17;;;9.20;99.90;;;-141.84;74.50;17209.22;5030057;28;20226;-57
2022/04/29 04:55:13;;;;;;;17.37;12.00;;;9.40;99.90;;;-141.84;72.39;17241.72;5029976;28;20273;-56
2022/04/29 04:57:41;;;;;;;17.90;12.37;;;9.50;99.90;;;-141.84;71.39;17288.44;5030604;28;20296;-57
2022/04/29 05:00:10;;;;;;;17.17;11.90;;;9.60;99.90;;;-141.84;71.47;17286.41;5030070;28;20222;-56
2022/04/29 05:02:42;;;;;;;13.90;11.83;;;9.80;99.90;;;-141.84;71.73;17241.72;5029775;28;20241;-58
2022/04/29 05:05:11;;;;;;;15.13;11.60;;;9.80;99.90;;;-141.84;70.16;17274.22;5030343;28;20233;-55
2022/04/29 05:07:40;;;;;;;14.10;11.57;;;10.00;99.90;;;-141.84;67.83;17329.06;5030811;28;20308;-56
2022/04/29 05:10:10;;;;;;;14.63;11.63;;;10.30;99.90;;;-141.84;66.09;17387.97;5030654;28;20209;-56
2022/04/29 05:12:40;;;;;;;15.60;11.70;;;10.50;99.90;;;-141.84;64.50;17430.63;5031184;28;20272;-58
2022/04/29 05:15:10;;;;;;;17.90;11.57;;;10.70;99.90;;;-141.84;64.65;17438.75;5030391;28;20309;-57
2022/04/29 05:17:39;;;;;;;15.20;11.93;;;10.70;99.90;;;-141.84;64.29;17446.88;5030641;28;20325;-56
2022/04/29 05:20:12;;;;;;;16.53;11.70;;;10.90;99.90;;;-141.84;62.66;17463.09;5030214;28;20558;-56
2022/04/29 05:22:40;;;;;;;18.07;12.97;;;10.80;99.90;;;-141.84;62.73;17479.34;5030554;28;20761;-58
2022/04/29 05:25:10;;;;;;;16.33;12.00;;;10.80;99.90;;;-141.84;63.13;17450.94;5030287;28;20209;-56
2022/04/29 05:27:38;;;;;;;14.13;11.67;;;10.80;99.90;;;-141.84;63.70;17471.22;5031050;28;20210;-56
2022/04/29 05:30:08;;;;;;;15.80;11.90;;;10.80;99.90;;;-141.84;63.71;17430.63;5030204;28;20649;-54
2022/04/29 05:32:39;;;;;;;17.40;12.13;;;10.70;99.90;;;-141.84;63.14;17479.34;5030380;28;20245;-56
2022/04/29 05:35:10;;;;;;;15.23;12.40;;;10.60;99.90;;;-141.84;63.23;17452.97;5029964;28;20313;-57
2022/04/29 05:37:40;;;;;;;16.63;12.60;;;10.70;99.90;;;-141.84;64.06;17444.84;5030152;28;20240;-56
2022/04/29 05:42:55;;;;;;;15.53;12.23;;;10.60;99.90;;;-141.84;63.45;17452.97;5025298;28;20329;-55
2022/04/29 05:45:23;;;;;;;15.00;11.90;;;10.70;99.90;;;-141.84;63.36;17461.09;5014932;28;20222;-58
2022/04/29 05:47:51;;;;;;;18.97;12.93;;;10.90;99.90;;;-141.84;61.30;17509.81;5010500;28;20230;-56
2022/04/29 05:50:21;;;;;;;16.53;12.37;;;11.10;99.90;;;-141.84;62.05;17501.69;5016376;28;20236;-58
2022/04/29 05:52:49;;;;;;;14.37;12.33;;;11.30;99.90;;;-141.84;61.90;17505.75;5030053;28;20648;-55
2022/04/29 05:55:17;;;;;;;14.37;12.20;;;11.30;99.90;;;-141.84;61.29;17501.69;5029891;28;20293;-57
2022/04/29 05:58:05;;;;;;;17.77;12.50;;;11.50;99.90;;;-141.84;60.09;17517.94;5030214;28;20206;-60
2022/04/29 06:00:33;;;;;;;15.57;12.20;;;11.40;99.90;;;-141.84;58.75;17574.81;5030289;28;20237;-59
2022/04/29 06:03:01;;;;;;;17.77;12.30;;;11.70;99.90;;;-141.84;58.03;17603.25;5033234;28;20221;-57
2022/04/29 06:05:31;;;;;;;14.57;11.57;;;11.90;99.90;;;-141.84;57.64;17621.53;5033981;28;20229;-57
2022/04/29 06:07:59;;;;;;;15.03;11.10;;;12.10;99.90;;;-141.84;57.05;17631.69;5034016;28;20486;-59
2022/04/29 06:10:27;;;;;;;14.17;11.20;;;12.20;99.90;;;-141.84;55.83;17662.16;5033554;28;20714;-56
2022/04/29 06:12:54;;;;;;;15.33;11.30;;;12.50;99.90;;;-141.84;55.07;17676.38;5034577;28;20212;-55
2022/04/29 06:15:22;;;;;;;17.87;11.63;;;12.70;99.90;;;-141.84;54.53;17704.81;5033825;28;20239;-56
2022/04/29 06:17:50;;;;;;;15.93;11.53;;;12.80;99.90;;;-141.84;53.69;17765.75;5033848;28;20640;-55
2022/04/29 06:20:18;;;;;;;15.90;12.13;;;12.90;99.90;;;-141.84;54.29;17729.19;5033706;28;20272;-57
2022/04/29 06:22:48;;;;;;;13.63;11.77;;;13.00;99.90;;;-141.84;54.03;17731.22;5033871;28;20225;-56
2022/04/29 06:25:18;;;;;;;15.97;12.00;;;13.10;99.90;;;-141.84;54.18;17753.56;5033572;28;20665;-57
2022/04/29 06:27:47;;;;;;;15.17;12.20;;;13.10;99.90;;;-141.84;54.36;17710.91;5034489;28;20246;-55
2022/04/29 06:30:16;;;;;;;17.60;11.47;;;13.20;99.90;;;-141.84;54.17;17751.53;5033595;28;20222;-55
2022/04/29 06:33:04;;;;;;;16.63;12.07;;;13.20;99.90;;;-141.84;54.02;17761.69;5033585;28;20661;-55
2022/04/29 06:35:35;;;;;;;18.17;11.70;;;13.20;99.90;;;-141.84;53.92;17725.13;5033596;28;20257;-57
2022/04/29 06:38:04;;;;;;;15.33;11.77;;;13.20;99.90;;;-141.84;53.65;17753.56;5033602;28;20226;-63
2022/04/29 06:40:32;;;;;;;14.37;11.17;;;13.40;99.90;;;-141.84;52.16;17806.38;5033294;28;20669;-63
2022/04/29 06:43:00;;;;;;;12.70;10.20;;;13.50;99.90;;;-141.84;53.45;17765.75;5027948;28;20286;-62
2022/04/29 06:45:28;;;;;;;18.43;12.33;;;13.50;99.90;;;-141.84;53.60;17769.81;5013975;28;20223;-62
2022/04/29 06:47:56;;;;;;;15.75;11.70;;;13.40;99.90;;;-141.84;53.61;17790.13;5013595;28;20246;-62
2022/04/29 06:50:24;;;;;;;17.00;11.02;;;13.40;99.90;;;-141.84;52.75;17804.34;5020110;28;20260;-62
2022/04/29 06:52:52;;;;;;;14.43;11.23;;;13.60;99.90;;;-141.84;52.20;17786.06;5033240;28;20234;-61
2022/04/29 06:55:21;;;;;;;12.35;10.05;;;13.80;99.90;;;-141.84;51.41;17816.53;5032928;28;20581;-62
2022/04/29 06:57:49;;;;;;;15.27;10.80;;;13.90;99.90;;;-141.84;50.38;17883.56;5033295;28;20770;-62
2022/04/29 07:00:19;;;;;;;13.75;10.88;;;14.10;99.90;;;-141.84;48.92;17950.63;5033291;28;20306;-62
2022/04/29 07:02:47;;;;;;;19.38;13.70;;;14.40;99.90;;;-141.84;47.36;17991.25;5033137;28;20232;-62
2022/04/29 07:05:16;;;;;;;12.85;10.15;;;14.60;99.90;;;-141.84;46.96;18005.47;5032956;28;20234;-62
2022/04/29 07:07:49;;;;;;;18.00;10.90;;;14.90;99.90;;;-141.84;45.62;18037.97;5032823;28;20249;-62
2022/04/29 07:10:18;;;;;;;15.00;10.32;;;15.20;99.90;;;-141.84;44.61;18086.72;5032693;28;20233;-62
2022/04/29 07:12:47;;;;;;;11.80;10.00;;;15.40;99.90;;;-141.84;44.14;18113.13;5033063;28;20634;-62
2022/04/29 07:15:17;;;;;;;14.13;10.10;;;15.60;99.90;;;-141.84;43.92;18141.56;5032746;28;20640;-63
2022/04/29 07:17:46;;;;;;;13.80;9.95;;;15.60;99.90;;;-141.84;44.07;18163.91;5032969;28;20240;-64
2022/04/29 07:20:15;;;;;;;10.82;9.73;;;15.70;99.90;;;-141.84;43.72;18167.97;5032694;28;20777;-63
2022/04/29 07:22:43;;;;;;;12.77;9.90;;;15.60;99.90;;;-141.84;43.45;18188.28;5032770;28;20228;-63
2022/04/29 07:25:14;;;;;;;12.57;9.23;;;15.60;99.90;;;-141.84;43.03;18157.81;5032498;28;20255;-62
2022/04/29 07:27:42;;;;;;;13.73;10.07;;;15.50;99.90;;;-141.84;44.17;18121.25;5032886;28;20200;-61
2022/04/29 07:30:12;;;;;;;14.85;10.02;;;15.30;99.90;;;-141.84;44.81;18121.25;5032364;28;20717;-61
2022/04/29 07:32:40;;;;;;;12.10;8.95;;;15.20;99.90;;;-141.84;44.66;18129.38;5032476;28;20606;-63
2022/04/29 07:43:28;;;;;;;10.35;8.85;;;15.20;99.90;;;-141.84;43.54;18198.44;5022290;28;20265;-62
2022/04/29 07:45:58;;;;;;;12.45;9.50;;;15.30;99.90;;;-141.84;43.80;18170.00;5013089;28;20298;-62
2022/04/29 07:48:26;;;;;;;11.15;9.68;;;15.40;99.90;;;-141.84;43.52;18167.97;5012388;28;20289;-62
2022/04/29 07:50:54;;;;;;;9.18;8.20;;;15.40;99.90;;;-141.84;43.16;18188.28;5023069;28;20230;-62
2022/04/29 07:53:23;;;;;;;13.40;8.52;;;15.70;99.90;;;-141.84;43.35;18157.81;5032062;28;20601;-62
2022/04/29 07:55:52;;;;;;;10.10;7.32;;;15.70;99.90;;;-141.84;42.99;18235.00;5031372;28;20245;-62
2022/04/29 07:58:20;;;;;;;10.05;8.10;;;15.80;99.90;;;-141.84;42.25;18204.53;5031849;28;20210;-62
2022/04/29 08:00:48;;;;;;;12.57;7.35;;;15.80;99.90;;;-141.84;42.32;18182.19;5032627;28;20206;-63
2022/04/29 08:03:36;;;;;;;10.35;6.88;;;15.70;99.90;;;-141.84;43.04;18131.41;5032442;28;20380;-61
2022/04/29 08:06:06;;;;;;;10.00;6.43;;;15.40;99.90;;;-141.84;43.52;18143.59;5031943;28;20623;-62
2022/04/29 08:08:37;;;;;;;8.52;6.55;;;15.30;99.90;;;-141.84;43.33;18196.41;5031864;28;20764;-62
2022/04/29 08:11:06;;;;;;;11.02;7.32;;;15.10;99.90;;;-141.84;43.18;18159.84;5031848;28;20234;-66
2022/04/29 08:13:34;;;;;;;10.95;7.70;;;15.00;99.90;;;-141.84;43.93;18151.72;5031874;28;20254;-62
2022/04/29 08:16:22;;;;;;;9.25;7.25;;;15.00;99.90;;;-141.84;43.36;18165.94;5030247;28;20241;-61
2022/04/29 08:18:53;;;;;;;10.15;6.90;;;15.20;99.90;;;-141.84;42.69;18182.19;5032684;28;20241;-60
2022/04/29 08:21:21;;;;;;;10.05;7.05;;;15.40;99.90;;;-141.84;42.15;18224.84;5030912;28;20324;-61
2022/04/29 08:23:49;;;;;;;12.30;8.30;;;15.60;99.90;;;-141.84;41.37;18287.84;5030731;28;20256;-62
2022/04/29 08:26:17;;;;;;;11.40;7.75;;;15.90;99.90;;;-141.84;40.84;18316.28;5030714;28;20259;-61
2022/04/29 08:28:45;;;;;;;10.30;6.80;;;16.20;99.90;;;-141.84;40.87;18318.31;5031162;28;20667;-60
2022/04/29 08:31:13;;;;;;;12.38;7.47;;;16.40;99.90;;;-141.84;39.94;18379.25;5031305;28;20678;-56
2022/04/29 08:33:41;;;;;;;10.15;6.68;;;16.70;99.90;;;-141.84;38.58;18448.34;5031903;28;20204;-58
2022/04/29 08:36:11;;;;;;;9.38;6.35;;;16.80;99.90;;;-141.84;38.49;18486.94;5030845;28;20246;-57
2022/04/29 08:38:40;;;;;;;10.27;7.18;;;17.00;99.90;;;-141.84;38.08;18529.59;5030828;28;20796;-55
2022/04/29 08:41:10;;;;;;;9.05;6.20;;;17.10;99.90;;;-141.84;37.04;18562.09;5031064;28;20230;-58
2022/04/29 08:43:40;;;;;;;7.63;6.10;;;17.20;99.90;;;-141.84;37.40;18543.81;5019784;28;20577;-59
2022/04/29 08:46:12;;;;;;;9.52;6.40;;;17.20;99.90;;;-141.84;36.99;18564.13;5011008;28;20748;-57
2022/04/29 08:48:41;;;;;;;8.73;6.07;;;17.40;99.90;;;-141.84;36.27;18592.59;5011427;28;20214;-56
2022/04/29 08:51:11;;;;;;;8.60;6.22;;;17.60;99.90;;;-141.84;36.64;18592.59;5023430;28;20253;-55
2022/04/29 08:53:39;;;;;;;11.30;6.45;;;17.60;99.90;;;-141.84;37.79;18533.66;5030512;28;20236;-56
2022/04/29 08:58:54;;;;;;;6.38;4.50;;;17.50;99.90;;;-141.84;34.35;18643.38;5030834;28;20234;-58
2022/04/29 09:01:23;;;;;;;5.18;4.28;;;17.60;99.90;;;-141.84;35.65;18602.75;5030767;28;20234;-59
2022/04/29 09:03:52;;;;;;;8.68;5.65;;;17.40;99.90;;;-141.84;36.45;18574.28;5031149;28;20214;-55
2022/04/29 09:06:22;;;;;;;8.25;5.40;;;17.20;99.90;;;-141.84;36.37;18608.84;5030410;28;20268;-59
2022/04/29 09:08:51;;;;;;;9.18;6.25;;;17.00;99.90;;;-141.84;36.29;18590.56;5029915;28;20718;-56
2022/04/29 09:11:26;;;;;;;9.27;5.70;;;17.10;99.90;;;-141.84;35.56;18635.25;5030099;28;20313;-59
2022/04/29 09:13:55;;;;;;;6.63;6.00;;;17.30;99.90;;;-141.84;36.21;18594.63;5030285;28;20312;-58
2022/04/29 09:16:23;;;;;;;6.47;5.03;;;17.10;99.90;;;-141.84;36.37;18590.56;5030338;28;20257;-56
2022/04/29 09:18:53;;;;;;;6.70;4.85;;;17.00;99.90;;;-141.84;35.28;18655.56;5030779;28;20206;-56
2022/04/29 09:21:26;;;;;;;8.88;4.90;;;17.10;99.90;;;-141.84;36.27;18574.28;5015557;28;20237;-58
2022/04/29 09:23:59;;;;;;;6.10;4.75;;;17.20;99.90;;;-141.84;36.17;18635.25;5010474;28;20233;-58
2022/04/29 09:26:29;;;;;;;5.75;4.40;;;17.30;99.90;;;-141.84;35.45;18657.59;5010725;28;20249;-59
2022/04/29 09:29:12;;;;;;;8.80;4.60;;;17.40;99.90;;;-141.84;34.78;18690.09;5010555;28;20308;-59
2022/04/29 09:31:53;;;;;;;6.55;4.47;;;17.60;99.90;;;-141.84;35.06;18692.13;5010345;28;20741;-58
2022/04/29 09:34:50;;;;;;;4.97;4.32;;;17.50;99.90;;;-141.84;34.78;18686.03;5010257;28;20316;-55
2022/04/29 09:37:21;;;;;;;7.90;5.28;;;17.60;99.90;;;-141.84;35.82;18635.25;5009569;28;20187;-56
2022/04/29 09:39:57;;;;;;;7.07;4.85;;;17.50;99.90;;;-141.84;35.26;18675.88;5011436;28;20187;-58
2022/04/29 09:42:37;;;;;;;7.30;5.20;;;17.50;99.90;;;-141.84;35.14;18657.59;5010146;28;20264;-55
2022/04/29 09:45:13;;;;;;;9.38;5.32;;;17.50;99.90;;;-141.84;35.69;18625.09;5010293;28;20318;-57
2022/04/29 09:47:41;;;;;;;6.72;4.72;;;17.30;99.90;;;-141.84;35.12;18647.44;5022655;28;20706;-57
2022/04/29 09:50:09;;;;;;;6.43;4.78;;;17.30;99.90;;;-141.84;35.43;18677.91;5029249;28;20208;-60
2022/04/29 09:52:43;;;;;;;6.07;4.60;;;17.30;99.90;;;-141.84;35.32;18681.97;5003566;28;20266;-59
2022/04/29 09:55:13;;;;;;;5.70;4.78;;;17.40;99.90;;;-141.84;34.77;18714.50;5009879;28;20222;-59
2022/04/29 09:57:48;;;;;;;5.90;4.93;;;17.60;99.90;;;-141.84;34.19;18738.88;5010050;28;20234;-55
2022/04/29 10:00:18;;;;;;;7.57;5.00;;;17.80;99.90;;;-141.84;33.87;18809.97;5022109;28;20709;-56
2022/04/29 10:02:49;;;;;;;5.72;4.25;;;17.90;99.90;;;-141.84;33.93;18793.72;5030442;28;20221;-53
2022/04/29 10:05:18;;;;;;;7.60;5.32;;;18.10;99.90;;;-141.84;33.12;18875.00;5030087;28;20206;-56
2022/04/29 10:07:49;;;;;;;5.80;4.47;;;18.40;99.90;;;-141.84;33.45;18842.50;5026208;28;20222;-57
2022/04/29 10:10:20;;;;;;;6.40;4.85;;;18.40;99.90;;;-141.84;32.67;18870.94;5009313;28;20813;-58
2022/04/29 10:12:50;;;;;;;5.97;4.75;;;18.40;99.90;;;-141.84;32.88;18899.38;5010181;28;20717;-55
2022/04/29 10:15:21;;;;;;;5.90;4.60;;;18.50;99.90;;;-141.84;33.34;18848.59;5009977;28;20222;-55
2022/04/29 10:23:26;;;;;;;5.72;4.80;;;18.30;99.90;;;-141.84;33.67;18852.66;5029878;28;20190;-60
2022/04/29 10:25:57;;;;;;;7.13;5.13;;;18.50;99.90;;;-141.84;33.84;18858.75;5017251;28;20709;-60
2022/04/29 10:28:27;;;;;;;6.03;4.95;;;18.60;99.90;;;-141.84;33.71;18870.94;5010089;28;20254;-59
2022/04/29 10:31:01;;;;;;;7.18;6.00;;;18.50;99.90;;;-141.84;33.41;18832.34;5009755;28;20231;-60
2022/04/29 10:33:29;;;;;;;5.75;5.13;;;18.50;99.90;;;-141.84;33.64;18858.75;5010238;28;20256;-60
2022/04/29 10:36:06;;;;;;;8.38;5.38;;;18.40;99.90;;;-141.84;33.72;18850.63;5009925;28;20223;-58